Time;durP1;ratioP1;P1;durP2;ratioP2;P2;SDS_P1;SDS_P2;PMS_P1;PMS_P2;Temp;Humidity;BMP_temperature;BMP_pressure;BME280_temperature;BME280_humidity;BME280_pressure;Samples;Min_cycle;Max_cycle;Signal;HPM_P1;HPM_P2
2022/05/12 00:01:40;;;;;;;1.17;1.00;;;;;;;;;;5034465;28;20813;-56
2022/05/12 00:04:28;;;;;;;1.70;1.10;;;;;;;;;;5032710;28;20311;-56
2022/05/12 00:07:15;;;;;;;0.97;0.77;;;;;;;;;;5030692;28;20315;-56
2022/05/12 00:10:06;;;;;;;1.73;1.10;;;;;;;;;;5033810;28;20234;-57
2022/05/12 00:12:54;;;;;;;1.77;1.07;;;;;;;;;;5037876;28;20209;-56
2022/05/12 00:15:41;;;;;;;0.80;0.70;;;;;;;;;;5032895;28;20248;-56
2022/05/12 00:18:28;;;;;;;1.30;1.10;;;;;;;;;;5034545;28;20208;-56
2022/05/12 00:21:15;;;;;;;2.17;1.43;;;;;;;;;;5030947;28;20264;-56
2022/05/12 00:24:02;;;;;;;0.87;0.87;;;;;;;;;;5031427;28;20784;-56
2022/05/12 00:26:51;;;;;;;1.10;1.00;;;;;;;;;;5035123;28;20216;-56
2022/05/12 00:29:38;;;;;;;1.13;1.03;;;;;;;;;;5032498;28;20241;-56
2022/05/12 00:32:25;;;;;;;2.17;1.07;;;;;;;;;;5033222;28;20233;-56
2022/05/12 00:35:14;;;;;;;1.33;1.10;;;;;;;;;;5031769;28;20349;-56
2022/05/12 00:38:01;;;;;;;0.73;0.73;;;;;;;;;;5038717;28;20697;-55
2022/05/12 00:40:48;;;;;;;2.30;1.03;;;;;;;;;;5036652;28;20531;-56
2022/05/12 00:43:40;;;;;;;1.37;1.13;;;;;;;;;;5031132;28;20369;-55
2022/05/12 00:46:31;;;;;;;1.53;0.90;;;;;;;;;;5030790;28;20220;-56
2022/05/12 00:49:23;;;;;;;1.43;1.30;;;;;;;;;;5030902;28;20374;-56
2022/05/12 00:52:14;;;;;;;1.33;1.00;;;;;;;;;;5036674;28;20217;-56
2022/05/12 00:55:06;;;;;;;2.33;1.10;;;;;;;;;;5030452;28;20262;-56
2022/05/12 00:57:56;;;;;;;1.60;1.07;;;;;;;;;;5034354;28;20200;-56
2022/05/12 01:00:45;;;;;;;1.33;1.13;;;;;;;;;;5031081;28;20559;-61
2022/05/12 01:03:33;;;;;;;1.87;1.27;;;;;;;;;;5032915;28;20324;-61
2022/05/12 01:06:20;;;;;;;2.30;1.33;;;;;;;;;;5031615;28;20717;-61
2022/05/12 01:09:07;;;;;;;0.93;0.90;;;;;;;;;;5031389;28;20210;-61
2022/05/12 01:11:54;;;;;;;1.03;0.93;;;;;;;;;;5035408;28;20236;-61
2022/05/12 01:14:41;;;;;;;2.07;1.27;;;;;;;;;;5028537;28;20211;-61
2022/05/12 01:17:29;;;;;;;1.43;0.93;;;;;;;;;;5029703;28;20681;-61
2022/05/12 01:20:16;;;;;;;1.47;0.90;;;;;;;;;;5033430;28;20213;-61
2022/05/12 01:23:07;;;;;;;1.30;1.07;;;;;;;;;;5029151;28;20383;-61
2022/05/12 01:26:02;;;;;;;1.20;1.10;;;;;;;;;;5028250;28;20690;-61
2022/05/12 01:28:49;;;;;;;2.57;1.47;;;;;;;;;;5029205;28;20238;-61
2022/05/12 01:31:37;;;;;;;1.80;1.07;;;;;;;;;;5028364;28;20206;-61
2022/05/12 01:34:24;;;;;;;1.43;0.83;;;;;;;;;;5033287;28;20237;-61
2022/05/12 01:37:11;;;;;;;1.87;1.20;;;;;;;;;;5031175;28;20269;-61
2022/05/12 01:39:58;;;;;;;1.27;1.10;;;;;;;;;;5028180;28;20622;-61
2022/05/12 01:42:46;;;;;;;1.57;1.20;;;;;;;;;;5028128;28;20261;-61
2022/05/12 01:45:33;;;;;;;1.43;1.10;;;;;;;;;;5028822;28;20271;-61
2022/05/12 01:48:21;;;;;;;2.37;1.13;;;;;;;;;;5029485;28;20654;-61
2022/05/12 01:51:09;;;;;;;1.40;1.20;;;;;;;;;;5028700;28;20224;-60
2022/05/12 01:53:56;;;;;;;1.43;0.97;;;;;;;;;;5029019;28;20312;-61
2022/05/12 01:56:43;;;;;;;2.13;1.30;;;;;;;;;;5030502;28;20639;-61
2022/05/12 01:59:31;;;;;;;1.17;0.93;;;;;;;;;;5031815;28;20318;-61
2022/05/12 02:02:18;;;;;;;1.67;1.43;;;;;;;;;;5031892;28;20226;-61
2022/05/12 02:05:09;;;;;;;1.97;1.20;;;;;;;;;;5035293;28;20289;-61
2022/05/12 02:07:56;;;;;;;1.20;1.10;;;;;;;;;;5029852;28;20206;-62
2022/05/12 02:10:45;;;;;;;1.67;1.43;;;;;;;;;;5031200;28;20205;-61
2022/05/12 02:13:32;;;;;;;2.27;1.23;;;;;;;;;;5028601;28;20208;-61
2022/05/12 02:16:22;;;;;;;1.73;1.30;;;;;;;;;;5032288;28;20212;-61
2022/05/12 02:19:11;;;;;;;2.47;1.30;;;;;;;;;;5028903;28;20665;-60
2022/05/12 02:22:00;;;;;;;1.87;1.13;;;;;;;;;;5029948;28;20705;-61
2022/05/12 02:24:47;;;;;;;1.73;1.20;;;;;;;;;;5029029;28;20229;-61
2022/05/12 02:27:34;;;;;;;1.47;1.20;;;;;;;;;;5030081;28;20287;-60
2022/05/12 02:30:25;;;;;;;2.50;1.00;;;;;;;;;;5036997;28;20243;-61
2022/05/12 02:33:13;;;;;;;2.77;1.50;;;;;;;;;;5032301;28;20687;-61
2022/05/12 02:36:02;;;;;;;1.47;0.93;;;;;;;;;;5028763;28;20682;-61
2022/05/12 02:38:49;;;;;;;1.80;1.23;;;;;;;;;;5028853;28;20206;-61
2022/05/12 02:41:36;;;;;;;2.50;1.30;;;;;;;;;;5034284;28;20288;-61
2022/05/12 02:44:23;;;;;;;1.37;1.27;;;;;;;;;;5036196;28;20314;-61
2022/05/12 02:47:10;;;;;;;1.20;1.10;;;;;;;;;;5028419;28;20292;-61
2022/05/12 02:49:58;;;;;;;1.80;1.17;;;;;;;;;;5029324;28;20783;-61
2022/05/12 02:52:45;;;;;;;1.53;1.33;;;;;;;;;;5027515;28;20312;-61
2022/05/12 02:55:32;;;;;;;3.27;1.33;;;;;;;;;;5030732;28;20242;-61
2022/05/12 02:58:20;;;;;;;1.40;1.30;;;;;;;;;;5030287;28;20709;-61
2022/05/12 03:01:07;;;;;;;1.40;1.23;;;;;;;;;;5028834;28;20317;-61
2022/05/12 03:03:54;;;;;;;2.23;1.27;;;;;;;;;;5031862;28;20750;-61
2022/05/12 03:06:43;;;;;;;2.20;1.30;;;;;;;;;;5029897;28;20296;-61
2022/05/12 03:09:30;;;;;;;1.93;1.47;;;;;;;;;;5028722;28;20220;-61
2022/05/12 03:12:17;;;;;;;2.20;1.20;;;;;;;;;;5030391;28;20217;-61
2022/05/12 03:15:06;;;;;;;2.57;1.43;;;;;;;;;;5027804;28;20281;-61
2022/05/12 03:17:53;;;;;;;3.07;1.30;;;;;;;;;;5031425;28;20247;-61
2022/05/12 03:20:40;;;;;;;1.30;1.20;;;;;;;;;;5026632;28;20271;-61
2022/05/12 03:23:28;;;;;;;1.77;1.10;;;;;;;;;;5028094;28;20715;-61
2022/05/12 03:26:15;;;;;;;2.77;1.80;;;;;;;;;;5027383;28;20353;-61
2022/05/12 03:29:02;;;;;;;2.03;1.23;;;;;;;;;;5028801;28;20212;-61
2022/05/12 03:31:49;;;;;;;2.13;1.57;;;;;;;;;;5030017;28;20269;-61
2022/05/12 03:34:36;;;;;;;1.63;1.27;;;;;;;;;;5029508;28;20759;-61
2022/05/12 03:37:23;;;;;;;1.97;1.60;;;;;;;;;;5028874;28;20240;-61
2022/05/12 03:40:14;;;;;;;1.50;1.40;;;;;;;;;;5027045;28;20230;-61
2022/05/12 03:43:01;;;;;;;1.70;1.40;;;;;;;;;;5030797;28;20292;-60
2022/05/12 03:45:48;;;;;;;3.00;1.73;;;;;;;;;;5030761;28;20295;-61
2022/05/12 03:48:37;;;;;;;2.77;1.40;;;;;;;;;;5028786;28;20237;-61
2022/05/12 03:51:24;;;;;;;2.27;1.40;;;;;;;;;;5032642;28;20477;-60
2022/05/12 03:54:11;;;;;;;2.50;1.37;;;;;;;;;;5032548;28;20256;-60
2022/05/12 03:56:59;;;;;;;3.83;1.40;;;;;;;;;;5031914;28;20308;-61
2022/05/12 03:59:48;;;;;;;3.73;1.20;;;;;;;;;;5032341;28;20215;-61
2022/05/12 04:02:35;;;;;;;2.23;1.40;;;;;;;;;;5038078;28;20208;-60
2022/05/12 04:05:21;;;;;;;2.43;1.40;;;;;;;;;;5029942;28;20317;-61
2022/05/12 04:08:08;;;;;;;3.73;1.83;;;;;;;;;;5033770;28;20312;-61
2022/05/12 04:10:55;;;;;;;1.73;1.20;;;;;;;;;;5033220;28;20295;-61
2022/05/12 04:13:44;;;;;;;2.20;1.40;;;;;;;;;;5030206;28;20210;-61
2022/05/12 04:16:31;;;;;;;1.50;1.40;;;;;;;;;;5033226;28;20209;-61
2022/05/12 04:19:18;;;;;;;1.60;1.20;;;;;;;;;;5029521;28;20213;-61
2022/05/12 04:22:05;;;;;;;1.60;1.50;;;;;;;;;;5031697;28;20570;-61
2022/05/12 04:24:54;;;;;;;2.43;1.10;;;;;;;;;;5035669;28;20361;-61
2022/05/12 04:27:42;;;;;;;2.87;1.33;;;;;;;;;;5031404;28;20279;-60
2022/05/12 04:30:31;;;;;;;2.40;1.43;;;;;;;;;;5030401;28;20344;-61
2022/05/12 04:36:22;;;;;;;2.80;1.50;;;;;;;;;;5030548;28;20233;-61
2022/05/12 04:39:10;;;;;;;3.03;1.27;;;;;;;;;;5033747;28;20307;-61
2022/05/12 04:41:57;;;;;;;2.20;1.70;;;;;;;;;;5032797;28;20341;-61
2022/05/12 04:44:44;;;;;;;1.70;1.30;;;;;;;;;;5035933;28;20703;-61
2022/05/12 04:47:33;;;;;;;1.97;1.30;;;;;;;;;;5030530;28;20299;-61
2022/05/12 04:50:22;;;;;;;2.57;1.70;;;;;;;;;;5030898;28;20350;-61
2022/05/12 04:53:10;;;;;;;2.30;1.40;;;;;;;;;;5028429;28;20257;-60
2022/05/12 04:55:57;;;;;;;2.60;1.60;;;;;;;;;;5030258;28;20691;-60
2022/05/12 04:58:44;;;;;;;1.53;1.10;;;;;;;;;;5033268;28;20319;-60
2022/05/12 05:01:31;;;;;;;3.07;1.60;;;;;;;;;;5030360;28;20248;-60
2022/05/12 05:04:20;;;;;;;2.30;1.40;;;;;;;;;;5031345;28;20238;-61
2022/05/12 05:07:09;;;;;;;1.80;1.10;;;;;;;;;;5031249;28;20215;-60
2022/05/12 05:09:56;;;;;;;1.83;1.10;;;;;;;;;;5030296;28;20207;-60
2022/05/12 05:12:43;;;;;;;1.93;1.20;;;;;;;;;;5031405;28;20688;-61
2022/05/12 05:15:30;;;;;;;1.57;1.30;;;;;;;;;;5030793;28;20215;-61
2022/05/12 05:18:19;;;;;;;1.93;1.43;;;;;;;;;;5029220;28;20338;-61
2022/05/12 05:21:08;;;;;;;2.73;1.40;;;;;;;;;;5030028;28;20255;-60
2022/05/12 05:23:54;;;;;;;1.53;1.00;;;;;;;;;;5029896;28;20216;-61
2022/05/12 05:26:41;;;;;;;2.33;1.37;;;;;;;;;;5031087;28;20378;-61
2022/05/12 05:29:29;;;;;;;2.80;1.23;;;;;;;;;;5029282;28;20850;-60
2022/05/12 05:32:16;;;;;;;1.30;1.13;;;;;;;;;;5029077;28;20203;-61
2022/05/12 05:35:03;;;;;;;1.87;1.37;;;;;;;;;;5029273;28;20197;-60
2022/05/12 05:37:53;;;;;;;1.43;1.33;;;;;;;;;;5032133;28;20364;-61
2022/05/12 05:40:40;;;;;;;1.83;1.03;;;;;;;;;;5029158;28;20205;-60
2022/05/12 05:43:28;;;;;;;1.53;1.10;;;;;;;;;;5030200;28;20343;-60
2022/05/12 05:46:16;;;;;;;1.80;1.10;;;;;;;;;;5031472;28;20243;-60
2022/05/12 05:49:03;;;;;;;2.60;1.20;;;;;;;;;;5030638;28;20240;-60
2022/05/12 05:54:55;;;;;;;1.53;1.00;;;;;;;;;;5033472;28;20346;-60
2022/05/12 05:57:43;;;;;;;1.67;1.00;;;;;;;;;;5028813;28;20252;-61
2022/05/12 06:00:32;;;;;;;3.20;1.30;;;;;;;;;;5029480;28;20610;-60
2022/05/12 06:03:19;;;;;;;1.40;0.83;;;;;;;;;;5029695;28;20206;-61
2022/05/12 06:06:06;;;;;;;1.43;1.10;;;;;;;;;;5034037;28;20300;-60
2022/05/12 06:08:53;;;;;;;1.63;1.20;;;;;;;;;;5031675;28;20581;-60
2022/05/12 06:11:44;;;;;;;1.63;1.20;;;;;;;;;;5033214;28;20733;-60
2022/05/12 06:14:33;;;;;;;1.17;1.00;;;;;;;;;;5027112;28;20578;-60
2022/05/12 06:17:20;;;;;;;2.03;1.33;;;;;;;;;;5028257;28;20209;-61
2022/05/12 06:20:09;;;;;;;1.33;1.10;;;;;;;;;;5028636;28;20340;-60
2022/05/12 06:22:56;;;;;;;1.17;1.07;;;;;;;;;;5029233;28;20210;-61
2022/05/12 06:25:44;;;;;;;1.07;0.93;;;;;;;;;;5028445;28;20265;-61
2022/05/12 06:28:32;;;;;;;1.30;1.00;;;;;;;;;;5030248;28;20212;-61
2022/05/12 06:31:24;;;;;;;1.50;1.10;;;;;;;;;;5028829;28;20225;-61
2022/05/12 06:34:12;;;;;;;1.13;0.73;;;;;;;;;;5033558;28;20215;-61
2022/05/12 06:36:59;;;;;;;1.60;1.10;;;;;;;;;;5029042;28;20220;-59
2022/05/12 06:39:46;;;;;;;1.53;1.13;;;;;;;;;;5029414;28;20213;-60
2022/05/12 06:42:35;;;;;;;1.80;1.10;;;;;;;;;;5029423;28;20238;-61
2022/05/12 06:45:23;;;;;;;1.03;1.00;;;;;;;;;;5027455;28;20221;-61
2022/05/12 06:48:10;;;;;;;1.57;1.10;;;;;;;;;;5039831;28;20292;-60
2022/05/12 06:50:57;;;;;;;0.77;0.77;;;;;;;;;;5030714;28;20247;-61
2022/05/12 06:53:44;;;;;;;1.03;0.90;;;;;;;;;;5028607;28;20351;-61
2022/05/12 06:56:31;;;;;;;1.20;0.90;;;;;;;;;;5029689;28;20413;-62
2022/05/12 06:59:18;;;;;;;1.93;1.00;;;;;;;;;;5027919;28;20250;-61
2022/05/12 07:02:08;;;;;;;1.50;1.03;;;;;;;;;;5027191;28;20688;-62
2022/05/12 07:04:54;;;;;;;1.43;1.10;;;;;;;;;;5034322;28;20313;-61
2022/05/12 07:07:43;;;;;;;1.60;0.70;;;;;;;;;;5032595;28;20255;-62
2022/05/12 07:10:30;;;;;;;1.43;0.80;;;;;;;;;;5029184;28;20204;-61
2022/05/12 07:13:20;;;;;;;1.00;0.90;;;;;;;;;;5027397;28;20262;-62
2022/05/12 07:16:08;;;;;;;1.13;0.90;;;;;;;;;;5029041;28;20200;-61
2022/05/12 07:18:57;;;;;;;2.23;0.93;;;;;;;;;;5028817;28;20242;-61
2022/05/12 07:27:53;;;;;;;1.07;0.83;;;;;;;;;;5034650;28;20211;-61
2022/05/12 07:33:45;;;;;;;1.73;1.00;;;;;;;;;;5030384;28;20684;-61
2022/05/12 07:36:37;;;;;;;0.87;0.70;;;;;;;;;;5035393;28;20244;-61
2022/05/12 07:39:28;;;;;;;1.13;0.90;;;;;;;;;;5034105;28;20569;-62
2022/05/12 07:42:15;;;;;;;1.13;0.87;;;;;;;;;;5034505;28;20213;-62
2022/05/12 07:45:02;;;;;;;2.57;0.90;;;;;;;;;;5029227;28;20764;-62
2022/05/12 07:47:49;;;;;;;1.07;1.03;;;;;;;;;;5037604;28;20204;-61
2022/05/12 07:50:36;;;;;;;1.57;1.00;;;;;;;;;;5032549;28;20811;-61
2022/05/12 07:53:24;;;;;;;1.37;0.93;;;;;;;;;;5032899;28;20311;-62
2022/05/12 07:56:11;;;;;;;1.40;1.00;;;;;;;;;;5035058;28;20251;-62
2022/05/12 07:59:00;;;;;;;1.17;0.73;;;;;;;;;;5038001;28;20261;-62
2022/05/12 08:01:47;;;;;;;2.63;0.80;;;;;;;;;;5031486;28;20321;-61
2022/05/12 08:04:37;;;;;;;1.83;0.80;;;;;;;;;;5032908;28;20365;-62
2022/05/12 08:07:24;;;;;;;1.40;0.80;;;;;;;;;;5038563;28;20216;-62
2022/05/12 08:10:13;;;;;;;1.77;0.80;;;;;;;;;;5035424;28;20299;-62
2022/05/12 08:13:00;;;;;;;1.87;1.00;;;;;;;;;;5035808;28;20260;-62
2022/05/12 08:15:48;;;;;;;1.70;0.87;;;;;;;;;;5031567;28;20250;-60
2022/05/12 08:18:36;;;;;;;1.57;0.93;;;;;;;;;;5034937;28;20198;-61
2022/05/12 08:21:24;;;;;;;1.80;1.00;;;;;;;;;;5032220;28;20216;-62
2022/05/12 08:24:11;;;;;;;1.17;0.90;;;;;;;;;;5032496;28;20205;-61
2022/05/12 08:26:59;;;;;;;0.90;0.80;;;;;;;;;;5034142;28;20252;-62
2022/05/12 08:29:46;;;;;;;2.00;0.63;;;;;;;;;;5031652;28;20301;-62
2022/05/12 08:32:33;;;;;;;2.00;1.00;;;;;;;;;;5035128;28;20298;-63
2022/05/12 08:35:20;;;;;;;2.20;1.00;;;;;;;;;;5028635;28;20206;-62
2022/05/12 08:38:07;;;;;;;1.40;0.90;;;;;;;;;;5033505;28;20211;-62
2022/05/12 08:41:12;;;;;;;1.40;1.10;;;;;;;;;;5032461;28;20291;-61
2022/05/12 08:44:02;;;;;;;3.00;1.27;;;;;;;;;;5031553;28;20208;-63
2022/05/12 08:46:55;;;;;;;1.80;1.00;;;;;;;;;;5034336;28;20283;-62
2022/05/12 08:49:44;;;;;;;3.47;1.20;;;;;;;;;;5022253;28;20276;-63
2022/05/12 08:52:38;;;;;;;1.43;1.20;;;;;;;;;;5015882;28;20229;-62
2022/05/12 08:55:29;;;;;;;2.07;1.10;;;;;;;;;;5014796;28;20202;-62
2022/05/12 08:58:21;;;;;;;1.10;1.00;;;;;;;;;;5016279;28;20328;-62
2022/05/12 09:01:17;;;;;;;1.57;0.90;;;;;;;;;;5014724;28;20217;-62
2022/05/12 09:04:18;;;;;;;5.13;1.60;;;;;;;;;;5010797;28;20209;-61
2022/05/12 09:07:12;;;;;;;1.20;1.10;;;;;;;;;;5012642;28;20241;-62
2022/05/12 09:10:09;;;;;;;1.70;1.23;;;;;;;;;;5010811;28;20300;-61
2022/05/12 09:13:00;;;;;;;2.47;1.20;;;;;;;;;;5018576;28;20673;-61
2022/05/12 09:15:53;;;;;;;3.13;1.23;;;;;;;;;;5010965;28;20241;-61
2022/05/12 09:18:42;;;;;;;1.33;1.03;;;;;;;;;;5010276;28;20289;-62
2022/05/12 09:21:31;;;;;;;1.47;1.10;;;;;;;;;;5013450;28;20294;-62
2022/05/12 09:24:18;;;;;;;1.20;1.03;;;;;;;;;;5012088;28;20729;-62
2022/05/12 09:27:10;;;;;;;1.33;1.03;;;;;;;;;;5015677;28;20296;-62
2022/05/12 09:29:57;;;;;;;1.03;0.90;;;;;;;;;;5013802;28;20248;-61
2022/05/12 09:32:44;;;;;;;4.40;1.20;;;;;;;;;;5014850;28;20233;-62
2022/05/12 09:35:32;;;;;;;1.20;1.10;;;;;;;;;;5012441;28;20884;-60
2022/05/12 09:38:23;;;;;;;1.20;1.10;;;;;;;;;;5011056;28;20582;-61
2022/05/12 09:41:20;;;;;;;2.97;1.53;;;;;;;;;;5014687;28;20259;-62
2022/05/12 09:44:18;;;;;;;1.83;1.20;;;;;;;;;;5011492;28;20210;-61
2022/05/12 09:47:11;;;;;;;3.20;1.50;;;;;;;;;;5011330;28;20336;-62
2022/05/12 09:50:16;;;;;;;1.40;1.23;;;;;;;;;;5027070;28;20352;-62
2022/05/12 09:53:07;;;;;;;1.90;1.50;;;;;;;;;;5041577;28;20238;-62
2022/05/12 09:56:06;;;;;;;3.60;1.47;;;;;;;;;;5031602;28;20555;-62
2022/05/12 09:59:02;;;;;;;2.33;1.10;;;;;;;;;;5029867;28;20218;-62
2022/05/12 10:01:52;;;;;;;2.00;1.27;;;;;;;;;;5029255;28;20599;-62
2022/05/12 10:08:01;;;;;;;1.77;1.20;;;;;;;;;;5002527;28;20271;-61
2022/05/12 10:10:55;;;;;;;2.17;1.03;;;;;;;;;;5032709;28;20639;-62
2022/05/12 10:13:47;;;;;;;2.43;1.57;;;;;;;;;;5031067;28;20206;-62
2022/05/12 10:16:34;;;;;;;2.47;1.33;;;;;;;;;;5030646;28;20205;-62
2022/05/12 10:19:23;;;;;;;2.50;1.40;;;;;;;;;;5035995;28;20260;-62
2022/05/12 10:22:15;;;;;;;2.03;1.43;;;;;;;;;;5030670;28;20211;-62
2022/05/12 10:25:21;;;;;;;1.97;1.30;;;;;;;;;;5029252;28;20212;-62
2022/05/12 10:28:17;;;;;;;1.60;1.13;;;;;;;;;;5030362;28;20296;-61
2022/05/12 10:31:15;;;;;;;2.40;1.27;;;;;;;;;;5036853;28;20292;-62
2022/05/12 10:34:17;;;;;;;2.90;1.37;;;;;;;;;;5036352;28;20251;-62
2022/05/12 10:37:14;;;;;;;2.67;1.50;;;;;;;;;;5029292;28;20240;-62
2022/05/12 10:40:14;;;;;;;2.27;1.37;;;;;;;;;;5031228;28;20213;-62
2022/05/12 10:43:17;;;;;;;1.67;1.20;;;;;;;;;;5030175;28;20206;-62
2022/05/12 10:46:12;;;;;;;2.53;1.40;;;;;;;;;;5029223;28;20863;-62
2022/05/12 10:49:14;;;;;;;2.90;1.57;;;;;;;;;;5024252;28;20238;-62
2022/05/12 10:52:12;;;;;;;1.97;1.30;;;;;;;;;;5014635;28;20237;-61
2022/05/12 10:55:10;;;;;;;1.50;1.27;;;;;;;;;;5014859;28;20221;-62
2022/05/12 10:58:19;;;;;;;3.17;1.40;;;;;;;;;;5017006;28;20338;-61
2022/05/12 11:01:17;;;;;;;1.73;1.33;;;;;;;;;;5016744;28;20206;-60
2022/05/12 11:04:08;;;;;;;2.13;1.13;;;;;;;;;;5013110;28;20294;-62
2022/05/12 11:07:00;;;;;;;3.17;1.43;;;;;;;;;;5018748;28;20226;-63
2022/05/12 11:09:51;;;;;;;1.80;1.20;;;;;;;;;;5021987;28;20285;-62
2022/05/12 11:12:43;;;;;;;1.60;1.10;;;;;;;;;;5012563;28;20317;-62
2022/05/12 11:15:35;;;;;;;2.10;1.30;;;;;;;;;;5012992;28;20627;-63
2022/05/12 11:18:29;;;;;;;2.07;1.40;;;;;;;;;;5014715;28;20216;-62
2022/05/12 11:21:19;;;;;;;2.90;1.40;;;;;;;;;;5018803;28;20271;-61
2022/05/12 11:24:16;;;;;;;2.50;1.37;;;;;;;;;;5019736;28;20550;-62
2022/05/12 11:27:26;;;;;;;2.07;1.40;;;;;;;;;;5013258;28;20999;-62
2022/05/12 11:30:33;;;;;;;2.93;1.33;;;;;;;;;;5019504;28;20350;-62
2022/05/12 11:33:31;;;;;;;2.13;1.17;;;;;;;;;;5013572;28;20213;-62
2022/05/12 11:36:18;;;;;;;1.13;1.03;;;;;;;;;;5015744;28;20206;-61
2022/05/12 11:39:21;;;;;;;1.23;0.90;;;;;;;;;;5018382;28;20242;-61
2022/05/12 11:42:16;;;;;;;1.33;1.07;;;;;;;;;;5018489;28;21274;-61
2022/05/12 11:45:06;;;;;;;2.77;1.33;;;;;;;;;;5014787;28;20522;-62
2022/05/12 11:48:16;;;;;;;2.23;1.53;;;;;;;;;;5016832;28;20816;-61
2022/05/12 11:51:18;;;;;;;2.77;1.50;;;;;;;;;;5016570;28;20289;-62
2022/05/12 11:54:08;;;;;;;1.63;1.20;;;;;;;;;;5016961;28;20320;-62
2022/05/12 11:56:56;;;;;;;1.87;1.30;;;;;;;;;;5018915;28;20237;-62
2022/05/12 11:59:48;;;;;;;1.17;0.80;;;;;;;;;;5018592;28;20236;-62
2022/05/12 12:02:45;;;;;;;1.53;1.17;;;;;;;;;;5015865;28;20300;-62
2022/05/12 12:05:58;;;;;;;1.53;1.00;;;;;;;;;;5022121;28;20210;-61
2022/05/12 12:08:47;;;;;;;2.70;1.20;;;;;;;;;;5017708;28;20316;-61
2022/05/12 12:11:44;;;;;;;2.93;1.30;;;;;;;;;;5020731;28;20209;-61
2022/05/12 12:14:56;;;;;;;1.50;1.20;;;;;;;;;;5025958;28;20323;-61
2022/05/12 12:17:45;;;;;;;1.17;1.00;;;;;;;;;;5017399;28;20281;-62
2022/05/12 12:20:50;;;;;;;1.37;1.10;;;;;;;;;;5018070;28;20295;-61
2022/05/12 12:23:38;;;;;;;2.00;1.00;;;;;;;;;;5019824;28;20216;-62
2022/05/12 12:26:32;;;;;;;1.97;1.23;;;;;;;;;;5018740;28;20693;-61
2022/05/12 12:29:21;;;;;;;2.93;1.20;;;;;;;;;;5019732;28;20220;-61
2022/05/12 12:32:30;;;;;;;1.20;0.80;;;;;;;;;;5021182;28;20361;-61
2022/05/12 12:35:26;;;;;;;1.97;0.90;;;;;;;;;;5018880;28;20234;-62
2022/05/12 12:39:04;;;;;;;0.97;0.87;;;;;;;;;;5018967;28;20217;-62
2022/05/12 12:42:06;;;;;;;0.90;0.90;;;;;;;;;;5017067;28;20299;-62
2022/05/12 12:44:56;;;;;;;1.23;0.90;;;;;;;;;;5017742;28;20354;-62
2022/05/12 12:47:50;;;;;;;2.00;0.80;;;;;;;;;;5014822;28;20704;-62
2022/05/12 12:50:43;;;;;;;1.43;0.90;;;;;;;;;;5010018;28;20244;-62
2022/05/12 12:56:41;;;;;;;1.00;0.70;;;;;;;;;;5011419;28;20228;-62
2022/05/12 12:59:33;;;;;;;1.03;0.87;;;;;;;;;;5019055;28;20766;-62
2022/05/12 13:02:29;;;;;;;2.13;1.10;;;;;;;;;;5011038;28;20241;-62
2022/05/12 13:05:20;;;;;;;1.00;0.73;;;;;;;;;;5009763;28;20666;-62
2022/05/12 13:08:20;;;;;;;0.77;0.70;;;;;;;;;;5012175;28;20252;-62
2022/05/12 13:11:07;;;;;;;0.87;0.83;;;;;;;;;;5009766;28;20340;-62
2022/05/12 13:13:56;;;;;;;2.10;1.03;;;;;;;;;;5013873;28;20256;-62
2022/05/12 13:16:49;;;;;;;0.80;0.70;;;;;;;;;;5013087;28;20704;-61
2022/05/12 13:19:39;;;;;;;1.50;1.00;;;;;;;;;;5011024;28;20222;-62
2022/05/12 13:22:40;;;;;;;1.00;0.70;;;;;;;;;;5009340;28;20213;-62
2022/05/12 13:25:31;;;;;;;1.40;0.77;;;;;;;;;;5017405;28;20613;-61
2022/05/12 13:28:22;;;;;;;1.50;1.30;;;;;;;;;;5011700;28;20305;-62
2022/05/12 13:31:16;;;;;;;1.20;1.00;;;;;;;;;;5014148;28;21016;-60
2022/05/12 13:34:08;;;;;;;1.63;1.00;;;;;;;;;;5010982;28;20241;-62
2022/05/12 13:36:59;;;;;;;0.87;0.67;;;;;;;;;;5015017;28;20295;-62
2022/05/12 13:39:49;;;;;;;2.43;1.00;;;;;;;;;;5015341;28;20204;-62
2022/05/12 13:42:42;;;;;;;1.80;1.10;;;;;;;;;;5009278;28;20244;-62
2022/05/12 13:45:32;;;;;;;0.90;0.70;;;;;;;;;;5012321;28;20480;-62
2022/05/12 13:48:23;;;;;;;1.90;0.80;;;;;;;;;;5013196;28;20740;-61
2022/05/12 13:51:13;;;;;;;3.17;1.20;;;;;;;;;;5029488;28;20239;-61
2022/05/12 13:54:08;;;;;;;2.60;0.83;;;;;;;;;;5031082;28;20227;-62
2022/05/12 13:57:14;;;;;;;2.63;1.20;;;;;;;;;;5030477;28;20264;-61
2022/05/12 14:00:13;;;;;;;1.27;1.00;;;;;;;;;;5031066;28;20205;-61
2022/05/12 14:03:15;;;;;;;0.80;0.80;;;;;;;;;;5029129;28;20208;-62
2022/05/12 14:06:13;;;;;;;3.30;1.07;;;;;;;;;;5029375;28;20208;-62
2022/05/12 14:09:06;;;;;;;3.60;0.90;;;;;;;;;;5034999;28;20214;-62
2022/05/12 14:12:20;;;;;;;1.27;0.77;;;;;;;;;;5032189;28;20261;-62
2022/05/12 14:21:22;;;;;;;1.00;0.80;;;;;;;;;;5031977;28;20202;-62
2022/05/12 14:24:09;;;;;;;1.53;0.70;;;;;;;;;;5029310;28;20289;-62
2022/05/12 14:26:56;;;;;;;1.27;1.13;;;;;;;;;;5021574;28;20327;-62
2022/05/12 14:29:43;;;;;;;1.57;0.83;;;;;;;;;;5031256;28;20222;-62
2022/05/12 14:32:37;;;;;;;0.90;0.77;;;;;;;;;;5030043;28;20313;-61
2022/05/12 14:35:27;;;;;;;1.50;0.90;;;;;;;;;;5035434;28;20232;-62
2022/05/12 14:38:15;;;;;;;1.10;0.80;;;;;;;;;;5031017;28;20286;-62
2022/05/12 14:41:02;;;;;;;1.10;0.70;;;;;;;;;;5031291;28;20260;-62
2022/05/12 14:43:49;;;;;;;1.63;1.27;;;;;;;;;;5027189;28;20201;-61
2022/05/12 14:46:43;;;;;;;1.40;0.93;;;;;;;;;;5028781;28;20312;-62
2022/05/12 14:49:34;;;;;;;1.87;1.07;;;;;;;;;;5035078;28;20245;-60
2022/05/12 14:52:24;;;;;;;0.87;0.87;;;;;;;;;;5026098;28;20279;-61
2022/05/12 14:55:13;;;;;;;1.27;0.87;;;;;;;;;;5025860;28;20288;-61
2022/05/12 14:58:00;;;;;;;1.00;0.90;;;;;;;;;;5029957;28;20278;-61
2022/05/12 15:00:48;;;;;;;1.97;1.20;;;;;;;;;;5027544;28;20217;-60
2022/05/12 15:03:35;;;;;;;2.37;0.80;;;;;;;;;;5032559;28;20287;-62
2022/05/12 15:06:25;;;;;;;2.27;1.00;;;;;;;;;;5025743;28;20212;-61
2022/05/12 15:09:12;;;;;;;2.37;1.00;;;;;;;;;;5030875;28;20314;-62
2022/05/12 15:12:01;;;;;;;0.80;0.67;;;;;;;;;;5024517;28;20963;-62
2022/05/12 15:14:48;;;;;;;2.20;0.90;;;;;;;;;;5029404;28;20210;-62
2022/05/12 15:17:36;;;;;;;1.47;0.90;;;;;;;;;;5030410;28;20305;-60
2022/05/12 15:20:24;;;;;;;1.17;0.87;;;;;;;;;;5026413;28;20299;-62
2022/05/12 15:23:11;;;;;;;1.27;1.00;;;;;;;;;;5030292;28;20229;-61
2022/05/12 15:25:58;;;;;;;1.43;0.93;;;;;;;;;;5026046;28;20690;-62
2022/05/12 15:28:47;;;;;;;1.83;0.87;;;;;;;;;;5029147;28;20880;-62
2022/05/12 15:31:34;;;;;;;1.30;0.87;;;;;;;;;;5029278;28;20221;-62
2022/05/12 15:34:21;;;;;;;1.23;0.83;;;;;;;;;;5024069;28;20200;-62
2022/05/12 15:37:08;;;;;;;1.10;1.00;;;;;;;;;;5027293;28;20679;-62
2022/05/12 15:39:55;;;;;;;0.80;0.80;;;;;;;;;;5026598;28;20254;-62
2022/05/12 15:42:44;;;;;;;2.17;1.23;;;;;;;;;;5032478;28;20331;-61
2022/05/12 15:45:33;;;;;;;0.97;0.77;;;;;;;;;;5024795;28;20297;-60
2022/05/12 15:48:22;;;;;;;1.63;0.93;;;;;;;;;;5030713;28;20695;-61
2022/05/12 15:51:08;;;;;;;0.97;0.80;;;;;;;;;;5032569;28;20208;-60
2022/05/12 15:53:55;;;;;;;1.83;1.00;;;;;;;;;;5032680;28;20329;-61
2022/05/12 15:56:42;;;;;;;2.47;0.90;;;;;;;;;;5033891;28;20235;-62
2022/05/12 15:59:29;;;;;;;1.10;1.00;;;;;;;;;;5028508;28;20208;-62
2022/05/12 16:02:22;;;;;;;1.03;0.93;;;;;;;;;;5031898;28;20212;-62
2022/05/12 16:05:09;;;;;;;1.00;0.80;;;;;;;;;;5032295;28;20214;-61
2022/05/12 16:07:56;;;;;;;2.10;0.90;;;;;;;;;;5035112;28;20281;-62
2022/05/12 16:10:46;;;;;;;1.57;0.90;;;;;;;;;;5034421;28;20721;-60
2022/05/12 16:13:33;;;;;;;1.17;0.80;;;;;;;;;;5033002;28;20208;-61
2022/05/12 16:16:21;;;;;;;1.17;0.83;;;;;;;;;;5032901;28;20258;-62
2022/05/12 16:19:09;;;;;;;2.80;1.07;;;;;;;;;;5031776;28;20216;-61
2022/05/12 16:21:56;;;;;;;1.07;0.80;;;;;;;;;;5033067;28;20213;-61
2022/05/12 16:24:43;;;;;;;0.50;0.50;;;;;;;;;;5032041;28;20261;-61
2022/05/12 16:27:30;;;;;;;0.83;0.80;;;;;;;;;;5032575;28;20308;-62
2022/05/12 16:30:22;;;;;;;1.43;0.73;;;;;;;;;;5027406;28;20295;-62
2022/05/12 16:33:10;;;;;;;1.87;0.80;;;;;;;;;;5029537;28;20362;-59
2022/05/12 16:35:59;;;;;;;0.80;0.80;;;;;;;;;;5029910;28;20291;-62
2022/05/12 16:38:46;;;;;;;0.70;0.60;;;;;;;;;;5028941;28;20244;-61
2022/05/12 16:41:33;;;;;;;0.83;0.77;;;;;;;;;;5031134;28;20219;-62
2022/05/12 16:44:20;;;;;;;0.77;0.77;;;;;;;;;;5028155;28;20292;-61
2022/05/12 16:47:08;;;;;;;1.63;0.97;;;;;;;;;;5029044;28;20277;-62
2022/05/12 16:49:54;;;;;;;0.93;0.80;;;;;;;;;;5029247;28;20299;-61
2022/05/12 16:52:43;;;;;;;1.93;0.80;;;;;;;;;;5028784;28;20302;-62
2022/05/12 16:55:33;;;;;;;1.37;0.77;;;;;;;;;;5030832;28;20216;-62
2022/05/12 16:58:21;;;;;;;1.00;0.77;;;;;;;;;;5028585;28;20665;-61
2022/05/12 17:01:08;;;;;;;0.90;0.70;;;;;;;;;;5033061;28;20607;-61
2022/05/12 17:03:54;;;;;;;1.53;1.00;;;;;;;;;;5035052;28;20666;-62
2022/05/12 17:06:41;;;;;;;0.60;0.60;;;;;;;;;;5029734;28;20223;-61
2022/05/12 17:09:32;;;;;;;1.60;1.07;;;;;;;;;;5036657;28;20214;-62
2022/05/12 17:12:18;;;;;;;1.53;0.87;;;;;;;;;;5032297;28;20285;-61
2022/05/12 17:15:06;;;;;;;0.90;0.80;;;;;;;;;;5028244;28;20256;-62
2022/05/12 17:17:53;;;;;;;0.60;0.60;;;;;;;;;;5032137;28;20309;-62
2022/05/12 17:20:40;;;;;;;1.37;0.73;;;;;;;;;;5032575;28;21483;-61
2022/05/12 17:23:27;;;;;;;1.07;0.80;;;;;;;;;;5031729;28;20294;-62
2022/05/12 17:26:16;;;;;;;1.43;1.07;;;;;;;;;;5028841;28;20536;-61
2022/05/12 17:29:03;;;;;;;1.00;0.83;;;;;;;;;;5025858;28;20251;-62